createdAt,value
2019-03-23T00:00:57.196Z,13.10
2019-03-23T00:01:57.382Z,9.90
2019-03-23T00:02:57.566Z,11.50
2019-03-23T00:03:58.495Z,10.40
2019-03-23T00:04:57.929Z,9.10
2019-03-23T00:05:58.927Z,9.60
2019-03-23T00:06:58.300Z,8.40
2019-03-23T00:07:58.495Z,7.40
2019-03-23T00:08:58.669Z,8.10
2019-03-23T00:09:58.867Z,10.40
2019-03-23T00:10:59.038Z,10.30
2019-03-23T00:11:59.231Z,10.50
2019-03-23T00:12:59.420Z,10.90
2019-03-23T00:13:59.598Z,8.80
2019-03-23T00:14:59.785Z,7.70
2019-03-23T00:15:59.966Z,7.90
2019-03-23T00:17:00.945Z,7.30
2019-03-23T00:18:00.285Z,10.70
2019-03-23T00:19:00.466Z,8.50
2019-03-23T00:20:00.652Z,8.40
2019-03-23T00:21:00.833Z,9.40
2019-03-23T00:22:01.014Z,6.10
2019-03-23T00:23:01.200Z,9.40
2019-03-23T00:24:01.386Z,8.30
2019-03-23T00:25:02.436Z,7.10
2019-03-23T00:26:01.746Z,8.40
2019-03-23T00:27:01.928Z,8.00
2019-03-23T00:28:02.116Z,9.50
2019-03-23T00:29:02.305Z,9.70
2019-03-23T00:30:03.433Z,10.20
2019-03-23T00:31:02.663Z,8.50
2019-03-23T00:32:02.841Z,10.20
2019-03-23T00:33:03.026Z,8.70
2019-03-23T00:34:03.209Z,9.10
2019-03-23T00:35:03.387Z,8.40
2019-03-23T00:36:03.568Z,7.80
2019-03-23T00:37:03.753Z,10.90
2019-03-23T00:38:03.940Z,8.80
2019-03-23T00:39:04.131Z,12.40
2019-03-23T00:40:04.308Z,11.30
2019-03-23T00:41:04.498Z,9.90
2019-03-23T00:42:04.691Z,9.90
2019-03-23T00:43:04.880Z,9.10
2019-03-23T00:44:07.353Z,8.10
2019-03-23T00:45:05.235Z,11.30
2019-03-23T00:46:05.419Z,9.20
2019-03-23T00:47:05.607Z,8.40
2019-03-23T00:48:05.788Z,15.80
2019-03-23T00:49:05.971Z,9.90
2019-03-23T00:50:06.154Z,10.40
2019-03-23T00:51:06.337Z,11.90
2019-03-23T00:52:06.526Z,7.80
2019-03-23T00:53:06.706Z,9.10
2019-03-23T00:54:06.889Z,7.90
2019-03-23T00:55:07.080Z,9.60
2019-03-23T00:56:07.266Z,12.70
2019-03-23T00:57:07.447Z,7.00
2019-03-23T00:58:07.632Z,7.70
2019-03-23T00:59:07.813Z,8.50
2019-03-23T01:00:07.995Z,9.20
2019-03-23T01:01:08.181Z,8.60
2019-03-23T01:02:08.361Z,9.70
2019-03-23T01:03:08.556Z,9.90
2019-03-23T01:04:09.096Z,8.20
2019-03-23T01:05:08.900Z,8.20
2019-03-23T01:06:09.089Z,8.80
2019-03-23T01:07:09.271Z,6.70
2019-03-23T01:08:09.461Z,7.90
2019-03-23T01:09:09.641Z,6.40
2019-03-23T01:10:09.823Z,8.80
2019-03-23T01:11:10.003Z,11.30
2019-03-23T01:12:10.185Z,8.80
2019-03-23T01:13:10.367Z,8.80
2019-03-23T01:14:10.551Z,8.70
2019-03-23T01:15:10.747Z,11.20
2019-03-23T01:16:10.917Z,7.40
2019-03-23T01:17:11.094Z,10.50
2019-03-23T01:18:11.276Z,8.40
2019-03-23T01:19:11.467Z,8.90
2019-03-23T01:20:11.649Z,9.40
2019-03-23T01:21:11.834Z,9.20
2019-03-23T01:22:12.017Z,8.20
2019-03-23T01:23:12.197Z,9.50
2019-03-23T01:24:12.381Z,7.50
2019-03-23T01:25:12.567Z,13.50
2019-03-23T01:26:12.861Z,9.70
2019-03-23T01:27:12.941Z,7.60
2019-03-23T01:28:13.136Z,7.40
2019-03-23T01:29:13.315Z,7.20
2019-03-23T01:30:13.510Z,8.40
2019-03-23T01:31:13.675Z,11.70
2019-03-23T01:32:13.864Z,9.50
2019-03-23T01:33:14.043Z,8.90
2019-03-23T01:34:14.230Z,10.80
2019-03-23T01:35:14.415Z,10.90
2019-03-23T01:36:14.595Z,8.30
2019-03-23T01:37:14.775Z,9.80
2019-03-23T01:38:14.964Z,8.40
2019-03-23T01:39:15.136Z,9.70
2019-03-23T01:40:15.376Z,7.90
2019-03-23T01:41:15.506Z,10.20
2019-03-23T01:42:15.686Z,9.10
2019-03-23T01:43:15.872Z,12.00
2019-03-23T01:44:16.057Z,10.10
2019-03-23T01:45:16.246Z,7.80
2019-03-23T01:46:16.427Z,9.20
2019-03-23T01:47:16.610Z,7.90
2019-03-23T01:48:16.789Z,8.50
2019-03-23T01:49:16.972Z,8.90
2019-03-23T01:50:17.161Z,10.50
2019-03-23T01:51:17.343Z,12.20
2019-03-23T01:52:17.532Z,9.50
2019-03-23T01:53:17.727Z,8.20
2019-03-23T01:54:17.907Z,8.50
2019-03-23T01:55:18.090Z,10.90
2019-03-23T01:56:18.268Z,8.00
2019-03-23T01:57:18.453Z,8.70
2019-03-23T01:58:18.639Z,8.80
2019-03-23T01:59:18.819Z,6.80
2019-03-23T02:00:19.000Z,9.50
2019-03-23T02:01:19.189Z,8.10
2019-03-23T02:02:19.372Z,10.70
2019-03-23T02:03:19.551Z,9.90
2019-03-23T02:04:19.736Z,7.90
2019-03-23T02:05:19.920Z,8.80
2019-03-23T02:06:20.118Z,7.40
2019-03-23T02:07:20.314Z,8.50
2019-03-23T02:08:20.489Z,8.50
2019-03-23T02:09:20.676Z,7.70
2019-03-23T02:10:20.862Z,7.80
2019-03-23T02:11:21.031Z,9.90
2019-03-23T02:12:21.215Z,12.20
2019-03-23T02:13:21.402Z,8.70
2019-03-23T02:14:21.578Z,9.10
2019-03-23T02:15:21.767Z,7.70
2019-03-23T02:16:21.949Z,8.50
2019-03-23T02:17:22.123Z,7.20
2019-03-23T02:18:22.300Z,7.30
2019-03-23T02:19:22.486Z,7.90
2019-03-23T02:20:22.669Z,11.90
2019-03-23T02:21:22.847Z,11.00
2019-03-23T02:22:23.033Z,9.10
2019-03-23T02:23:23.213Z,10.00
2019-03-23T02:24:23.397Z,7.50
2019-03-23T02:25:23.580Z,7.40
2019-03-23T02:26:23.766Z,10.00
2019-03-23T02:27:23.945Z,8.50
2019-03-23T02:28:24.129Z,9.20
2019-03-23T02:29:24.308Z,9.30
2019-03-23T02:30:24.489Z,12.30
2019-03-23T02:31:24.676Z,9.30
2019-03-23T02:32:24.847Z,8.20
2019-03-23T02:33:25.040Z,7.40
2019-03-23T02:34:25.230Z,8.30
2019-03-23T02:35:25.398Z,11.80
2019-03-23T02:36:25.581Z,10.30
2019-03-23T02:37:28.081Z,8.70
2019-03-23T02:38:25.943Z,10.40
2019-03-23T02:39:26.136Z,10.70
2019-03-23T02:40:26.305Z,8.10
2019-03-23T02:41:26.487Z,11.00
2019-03-23T02:42:26.677Z,9.60
2019-03-23T02:43:26.857Z,13.00
2019-03-23T02:44:27.053Z,7.90
2019-03-23T02:45:30.121Z,8.80
2019-03-23T02:46:27.413Z,9.30
2019-03-23T02:47:27.605Z,9.60
2019-03-23T02:48:27.783Z,11.50
2019-03-23T02:49:27.979Z,9.20
2019-03-23T02:50:28.159Z,8.70
2019-03-23T02:51:28.342Z,8.60
2019-03-23T02:52:28.532Z,9.50
2019-03-23T02:53:28.716Z,11.40
2019-03-23T02:54:28.903Z,9.80
2019-03-23T02:55:29.084Z,11.50
2019-03-23T02:56:29.269Z,9.50
2019-03-23T02:57:29.447Z,8.20
2019-03-23T02:58:29.628Z,8.40
2019-03-23T02:59:29.821Z,10.20
2019-03-23T03:00:30.001Z,12.10
2019-03-23T03:01:30.177Z,8.90
2019-03-23T03:02:30.380Z,7.90
2019-03-23T03:03:30.554Z,10.10
2019-03-23T03:04:30.736Z,10.30
2019-03-23T03:05:30.933Z,10.50
2019-03-23T03:06:31.119Z,7.40
2019-03-23T03:07:41.934Z,9.40
2019-03-23T03:08:31.481Z,12.00
2019-03-23T03:09:31.652Z,9.10
2019-03-23T03:10:31.835Z,8.30
2019-03-23T03:11:32.030Z,9.00
2019-03-23T03:12:32.202Z,7.40
2019-03-23T03:13:32.397Z,11.30
2019-03-23T03:14:32.579Z,8.00
2019-03-23T03:15:32.755Z,9.00
2019-03-23T03:16:32.952Z,8.20
2019-03-23T03:17:33.127Z,8.40
2019-03-23T03:18:33.307Z,7.60
2019-03-23T03:19:33.491Z,8.00
2019-03-23T03:20:33.681Z,9.20
2019-03-23T03:21:33.849Z,9.60
2019-03-23T03:22:34.048Z,10.10
2019-03-23T03:23:34.229Z,10.40
2019-03-23T03:24:34.404Z,8.20
2019-03-23T03:25:34.585Z,9.80
2019-03-23T03:26:34.774Z,8.10
2019-03-23T03:27:34.953Z,8.30
2019-03-23T03:28:35.138Z,9.70
2019-03-23T03:29:35.319Z,8.80
2019-03-23T03:30:35.529Z,9.50
2019-03-23T03:31:35.695Z,10.60
2019-03-23T03:32:35.874Z,9.50
2019-03-23T03:33:36.057Z,7.70
2019-03-23T03:34:36.304Z,9.30
2019-03-23T03:35:36.421Z,10.60
2019-03-23T03:36:36.603Z,8.80
2019-03-23T03:37:36.791Z,8.50
2019-03-23T03:38:36.973Z,8.50
2019-03-23T03:39:37.148Z,11.10
2019-03-23T03:40:37.343Z,8.90
2019-03-23T03:41:37.516Z,7.60
2019-03-23T03:42:37.698Z,11.40
2019-03-23T03:43:37.873Z,10.20
2019-03-23T03:44:38.057Z,12.30
2019-03-23T03:45:38.244Z,9.00
2019-03-23T03:46:38.421Z,8.60
2019-03-23T03:47:41.246Z,8.90
2019-03-23T03:48:38.782Z,8.50
2019-03-23T03:49:38.964Z,7.90
2019-03-23T03:50:39.161Z,8.50
2019-03-23T03:51:39.344Z,9.30
2019-03-23T03:52:39.524Z,14.10
2019-03-23T03:53:39.696Z,8.00
2019-03-23T03:54:39.874Z,9.20
2019-03-23T03:55:40.062Z,8.20
2019-03-23T03:56:40.243Z,8.40
2019-03-23T03:57:40.430Z,9.70
2019-03-23T03:58:40.613Z,9.30
2019-03-23T03:59:40.801Z,7.60
2019-03-23T04:00:40.992Z,8.70
2019-03-23T04:01:41.173Z,7.30
2019-03-23T04:02:41.367Z,8.00
2019-03-23T04:03:41.535Z,8.30
2019-03-23T04:04:41.715Z,8.60
2019-03-23T04:05:41.894Z,10.20
2019-03-23T04:06:42.082Z,9.00
2019-03-23T04:07:42.259Z,11.30
2019-03-23T04:08:42.443Z,10.60
2019-03-23T04:09:42.644Z,7.90
2019-03-23T04:10:42.801Z,8.90
2019-03-23T04:11:42.986Z,9.20
2019-03-23T04:12:43.172Z,8.90
2019-03-23T04:13:43.364Z,11.10
2019-03-23T04:14:43.537Z,10.10
2019-03-23T04:15:43.732Z,10.40
2019-03-23T04:16:43.900Z,11.60
2019-03-23T04:17:44.092Z,11.50
2019-03-23T04:18:44.269Z,8.20
2019-03-23T04:19:44.448Z,9.00
2019-03-23T04:20:44.629Z,9.10
2019-03-23T04:21:44.815Z,8.30
2019-03-23T04:22:44.998Z,8.90
2019-03-23T04:23:45.183Z,11.90
2019-03-23T04:24:45.380Z,11.10
2019-03-23T04:25:45.561Z,9.20
2019-03-23T04:26:45.748Z,10.80
2019-03-23T04:27:45.940Z,11.20
2019-03-23T04:28:46.130Z,9.20
2019-03-23T04:29:46.297Z,11.30
2019-03-23T04:30:46.482Z,11.10
2019-03-23T04:31:46.665Z,8.60
2019-03-23T04:32:46.852Z,9.50
2019-03-23T04:33:47.031Z,12.70
2019-03-23T04:34:47.211Z,8.50
2019-03-23T04:35:47.395Z,7.80
2019-03-23T04:36:47.573Z,9.00
2019-03-23T04:37:47.745Z,11.00
2019-03-23T04:38:47.942Z,10.80
2019-03-23T04:39:48.116Z,9.40
2019-03-23T04:40:48.293Z,13.80
2019-03-23T04:41:48.478Z,10.80
2019-03-23T04:42:48.655Z,8.80
2019-03-23T04:43:48.837Z,12.10
2019-03-23T04:44:49.019Z,10.50
2019-03-23T04:45:49.202Z,11.50
2019-03-23T04:46:49.380Z,9.40
2019-03-23T04:47:49.561Z,11.20
2019-03-23T04:48:49.744Z,11.70
2019-03-23T04:49:49.929Z,12.20
2019-03-23T04:50:50.120Z,12.60
2019-03-23T04:51:50.298Z,10.30
2019-03-23T04:52:50.487Z,10.10
2019-03-23T04:53:50.668Z,10.10
2019-03-23T04:54:50.854Z,9.70
2019-03-23T04:55:51.038Z,9.10
2019-03-23T04:56:51.214Z,9.30
2019-03-23T04:57:51.397Z,13.60
2019-03-23T04:58:51.583Z,9.40
2019-03-23T04:59:51.787Z,10.00
2019-03-23T05:00:51.953Z,10.20
2019-03-23T05:01:52.125Z,9.90
2019-03-23T05:02:52.309Z,10.60
2019-03-23T05:03:52.488Z,10.70
2019-03-23T05:04:52.687Z,9.00
2019-03-23T05:05:52.881Z,10.70
2019-03-23T05:06:53.059Z,9.70
2019-03-23T05:07:53.233Z,11.40
2019-03-23T05:08:53.416Z,10.90
2019-03-23T05:09:53.598Z,9.30
2019-03-23T05:10:53.780Z,9.80
2019-03-23T05:11:53.962Z,11.40
2019-03-23T05:12:54.143Z,9.60
2019-03-23T05:13:54.322Z,10.80
2019-03-23T05:14:54.504Z,11.10
2019-03-23T05:15:54.689Z,12.40
2019-03-23T05:16:54.864Z,10.40
2019-03-23T05:17:55.046Z,9.30
2019-03-23T05:18:55.234Z,9.30
2019-03-23T05:19:55.406Z,10.00
2019-03-23T05:20:55.592Z,12.40
2019-03-23T05:21:55.818Z,10.60
2019-03-23T05:22:55.949Z,10.30
2019-03-23T05:23:56.135Z,11.00
2019-03-23T05:24:56.317Z,12.10
2019-03-23T05:25:56.503Z,9.70
2019-03-23T05:26:56.679Z,11.30
2019-03-23T05:27:56.862Z,11.00
2019-03-23T05:28:57.037Z,11.90
2019-03-23T05:29:57.218Z,11.40
2019-03-23T05:30:57.403Z,11.90
2019-03-23T05:31:57.584Z,10.50
2019-03-23T05:32:57.764Z,10.50
2019-03-23T05:33:57.941Z,11.30
2019-03-23T05:34:58.126Z,11.20
2019-03-23T05:35:58.308Z,9.60
2019-03-23T05:36:58.490Z,9.90
2019-03-23T05:37:58.666Z,8.20
2019-03-23T05:38:58.851Z,8.40
2019-03-23T05:39:59.031Z,9.90
2019-03-23T05:40:59.236Z,11.80
2019-03-23T05:41:59.406Z,11.10
2019-03-23T05:42:59.589Z,9.90
2019-03-23T05:43:59.769Z,9.40
2019-03-23T05:44:59.951Z,9.10
2019-03-23T05:46:00.130Z,9.60
2019-03-23T05:47:00.320Z,9.20
2019-03-23T05:48:00.494Z,9.60
2019-03-23T05:49:00.679Z,8.50
2019-03-23T05:50:00.863Z,10.70
2019-03-23T05:51:01.042Z,9.40
2019-03-23T05:52:01.610Z,12.40
2019-03-23T05:53:01.416Z,12.20
2019-03-23T05:54:01.599Z,8.80
2019-03-23T05:55:01.785Z,10.00
2019-03-23T05:56:01.959Z,9.70
2019-03-23T05:57:02.141Z,12.50
2019-03-23T05:58:02.324Z,8.70
2019-03-23T05:59:02.503Z,11.10
2019-03-23T06:00:02.684Z,11.00
2019-03-23T06:01:02.872Z,11.50
2019-03-23T06:02:03.055Z,14.50
2019-03-23T06:03:03.239Z,21.10
2019-03-23T06:04:03.421Z,18.40
2019-03-23T06:05:03.601Z,21.50
2019-03-23T06:06:03.791Z,35.10
2019-03-23T06:07:03.971Z,44.20
2019-03-23T06:08:04.156Z,31.60
2019-03-23T06:09:04.327Z,25.20
2019-03-23T06:10:04.530Z,19.70
2019-03-23T06:11:04.716Z,18.30
2019-03-23T06:12:04.904Z,24.80
2019-03-23T06:13:05.081Z,16.50
2019-03-23T06:14:05.269Z,13.10
2019-03-23T06:15:05.455Z,12.40
2019-03-23T06:16:05.655Z,9.60
2019-03-23T06:17:05.841Z,12.00
2019-03-23T06:18:06.033Z,9.60
2019-03-23T06:19:06.225Z,8.40
2019-03-23T06:20:06.411Z,9.70
2019-03-23T06:21:06.597Z,8.10
2019-03-23T06:22:06.783Z,9.30
2019-03-23T06:23:06.970Z,7.30
2019-03-23T06:24:07.161Z,9.40
2019-03-23T06:25:07.350Z,6.80
2019-03-23T06:26:07.542Z,5.80
2019-03-23T06:27:07.729Z,7.40
2019-03-23T06:28:07.908Z,7.00
2019-03-23T06:29:08.104Z,7.40
2019-03-23T06:30:08.294Z,9.00
2019-03-23T06:31:08.483Z,5.90
2019-03-23T06:32:08.682Z,6.90
2019-03-23T06:33:08.870Z,6.30
2019-03-23T06:34:09.053Z,5.70
2019-03-23T06:35:09.247Z,7.10
2019-03-23T06:36:09.439Z,5.80
2019-03-23T06:37:09.634Z,6.60
2019-03-23T06:38:09.831Z,8.60
2019-03-23T06:39:10.027Z,6.40
2019-03-23T06:40:10.219Z,6.00
2019-03-23T06:41:10.410Z,7.70
2019-03-23T06:42:10.599Z,6.00
2019-03-23T06:43:10.805Z,5.60
2019-03-23T06:44:11.004Z,6.20
2019-03-23T06:45:11.197Z,6.60
2019-03-23T06:46:11.393Z,6.20
2019-03-23T06:47:11.590Z,8.00
2019-03-23T06:48:11.794Z,6.30
2019-03-23T06:49:11.980Z,8.00
2019-03-23T06:50:12.179Z,10.20
2019-03-23T06:51:12.373Z,7.70
2019-03-23T06:52:12.568Z,7.80
2019-03-23T06:53:12.756Z,6.30
2019-03-23T06:54:12.947Z,5.70
2019-03-23T06:55:13.150Z,8.40
2019-03-23T06:56:13.346Z,6.30
2019-03-23T06:57:13.541Z,7.30
2019-03-23T06:58:13.737Z,6.20
2019-03-23T06:59:13.931Z,6.20
2019-03-23T07:00:14.126Z,8.30
2019-03-23T07:01:14.327Z,5.60
2019-03-23T07:02:14.520Z,6.60
2019-03-23T07:03:14.713Z,5.80
2019-03-23T07:04:14.910Z,7.70
2019-03-23T07:05:15.104Z,8.70
2019-03-23T07:06:15.299Z,7.00
2019-03-23T07:07:15.517Z,5.30
2019-03-23T07:08:15.717Z,6.30
2019-03-23T07:09:16.626Z,7.20
2019-03-23T07:10:16.116Z,7.20
2019-03-23T07:11:16.294Z,6.40
2019-03-23T07:12:16.499Z,8.30
2019-03-23T07:13:16.706Z,9.50
2019-03-23T07:14:16.879Z,7.00
2019-03-23T07:15:20.311Z,6.90
2019-03-23T07:16:17.268Z,5.70
2019-03-23T07:17:18.011Z,8.70
2019-03-23T07:18:17.660Z,7.30
2019-03-23T07:19:17.847Z,6.60
2019-03-23T07:20:18.054Z,7.00
2019-03-23T07:21:18.248Z,6.90
2019-03-23T07:22:18.442Z,9.70
2019-03-23T07:23:18.642Z,7.80
2019-03-23T07:24:19.509Z,8.20
2019-03-23T07:25:19.038Z,9.90
2019-03-23T07:26:20.010Z,7.30
2019-03-23T07:27:20.019Z,6.30
2019-03-23T07:28:19.609Z,7.90
2019-03-23T07:29:19.807Z,7.80
2019-03-23T07:30:20.000Z,8.40
2019-03-23T07:31:20.194Z,5.80
2019-03-23T07:32:20.407Z,6.80
2019-03-23T07:33:20.592Z,6.60
2019-03-23T07:34:20.792Z,9.00
2019-03-23T07:35:20.991Z,6.10
2019-03-23T07:36:21.184Z,6.50
2019-03-23T07:37:21.386Z,9.10
2019-03-23T07:38:21.571Z,6.70
2019-03-23T07:39:28.029Z,7.10
2019-03-23T07:40:21.987Z,5.60
2019-03-23T07:41:22.182Z,9.70
2019-03-23T07:42:22.377Z,5.60
2019-03-23T07:43:23.521Z,6.90
2019-03-23T07:44:22.751Z,6.80
2019-03-23T07:45:22.948Z,5.70
2019-03-23T07:46:23.142Z,6.30
2019-03-23T07:47:23.346Z,7.90
2019-03-23T07:48:23.530Z,5.20
2019-03-23T07:49:23.733Z,5.90
2019-03-23T07:50:23.931Z,7.00
2019-03-23T07:51:24.123Z,7.20
2019-03-23T07:52:24.317Z,5.60
2019-03-23T07:53:24.510Z,5.70
2019-03-23T07:54:24.700Z,8.20
2019-03-23T07:55:24.898Z,6.80
2019-03-23T07:56:25.094Z,5.00
2019-03-23T07:57:25.293Z,6.70
2019-03-23T07:58:25.485Z,7.60
2019-03-23T07:59:25.681Z,6.20
2019-03-23T08:00:25.876Z,7.00
2019-03-23T08:01:26.085Z,8.30
2019-03-23T08:02:26.279Z,7.30
2019-03-23T08:03:26.476Z,6.00
2019-03-23T08:04:26.686Z,6.00
2019-03-23T08:05:26.878Z,6.60
2019-03-23T08:06:27.073Z,6.30
2019-03-23T08:07:27.268Z,7.10
2019-03-23T08:08:27.461Z,7.10
2019-03-23T08:09:37.393Z,5.80
2019-03-23T08:10:27.869Z,5.50
2019-03-23T08:11:28.065Z,5.60
2019-03-23T08:12:28.263Z,5.20
2019-03-23T08:13:28.546Z,6.40
2019-03-23T08:14:28.669Z,5.00
2019-03-23T08:15:28.885Z,5.00
2019-03-23T08:16:29.082Z,5.80
2019-03-23T08:17:29.274Z,7.90
2019-03-23T08:18:29.469Z,5.20
2019-03-23T08:19:29.663Z,5.20
2019-03-23T08:20:29.866Z,6.30
2019-03-23T08:21:30.054Z,5.90
2019-03-23T08:22:30.269Z,6.70
2019-03-23T08:23:30.473Z,5.80
2019-03-23T08:24:30.663Z,7.50
2019-03-23T08:25:30.864Z,6.80
2019-03-23T08:26:31.060Z,6.10
2019-03-23T08:27:31.258Z,6.30
2019-03-23T08:28:32.498Z,5.70
2019-03-23T08:29:31.652Z,6.90
2019-03-23T08:30:31.852Z,5.20
2019-03-23T08:31:32.054Z,5.40
2019-03-23T08:32:32.251Z,6.00
2019-03-23T08:33:32.450Z,6.20
2019-03-23T08:34:32.644Z,7.10
2019-03-23T08:35:32.843Z,6.40
2019-03-23T08:36:33.040Z,6.00
2019-03-23T08:37:33.290Z,4.60
2019-03-23T08:38:33.432Z,4.80
2019-03-23T08:39:33.630Z,5.50
2019-03-23T08:40:35.665Z,5.80
2019-03-23T08:41:34.025Z,5.40
2019-03-23T08:42:35.051Z,5.90
2019-03-23T08:43:34.424Z,5.70
2019-03-23T08:44:34.627Z,5.50
2019-03-23T08:45:34.829Z,5.50
2019-03-23T08:46:35.023Z,5.70
2019-03-23T08:47:35.225Z,5.40
2019-03-23T08:48:35.425Z,5.60
2019-03-23T08:49:35.622Z,6.90
2019-03-23T08:50:35.824Z,6.30
2019-03-23T08:51:36.025Z,6.30
2019-03-23T08:52:36.223Z,7.00
2019-03-23T08:53:36.422Z,5.70
2019-03-23T08:54:36.619Z,5.70
2019-03-23T08:55:36.820Z,7.00
2019-03-23T08:56:37.498Z,5.80
2019-03-23T08:57:37.219Z,7.30
2019-03-23T08:58:37.416Z,6.00
2019-03-23T08:59:37.621Z,8.20
2019-03-23T09:00:37.818Z,7.70
2019-03-23T09:01:38.015Z,6.50
2019-03-23T09:02:38.210Z,7.60
2019-03-23T09:03:38.414Z,5.80
2019-03-23T09:04:38.609Z,6.20
2019-03-23T09:05:38.809Z,8.70
2019-03-23T09:06:39.008Z,7.70
2019-03-23T09:07:39.198Z,5.90
2019-03-23T09:08:39.398Z,9.90
2019-03-23T09:09:39.599Z,7.30
2019-03-23T09:10:39.790Z,5.90
2019-03-23T09:11:39.984Z,8.40
2019-03-23T09:12:40.191Z,7.80
2019-03-23T09:13:41.021Z,8.80
2019-03-23T09:14:40.600Z,6.90
2019-03-23T09:15:40.821Z,8.20
2019-03-23T09:16:41.007Z,8.30
2019-03-23T09:17:41.212Z,7.90
2019-03-23T09:18:41.411Z,7.50
2019-03-23T09:19:41.613Z,6.80
2019-03-23T09:20:41.812Z,7.20
2019-03-23T09:21:41.993Z,7.60
2019-03-23T09:22:42.199Z,6.70
2019-03-23T09:23:42.399Z,8.90
2019-03-23T09:24:42.589Z,7.10
2019-03-23T09:25:42.804Z,6.20
2019-03-23T09:26:43.018Z,6.70
2019-03-23T09:27:43.216Z,5.90
2019-03-23T09:28:43.409Z,6.40
2019-03-23T09:29:43.613Z,6.20
2019-03-23T09:30:43.821Z,7.10
2019-03-23T09:31:44.015Z,9.30
2019-03-23T09:32:44.209Z,5.80
2019-03-23T09:33:44.417Z,9.10
2019-03-23T09:34:44.621Z,8.50
2019-03-23T09:35:44.816Z,8.30
2019-03-23T09:36:45.020Z,8.40
2019-03-23T09:37:45.215Z,9.00
2019-03-23T09:38:45.416Z,9.40
2019-03-23T09:39:45.621Z,9.40
2019-03-23T09:40:45.817Z,10.00
2019-03-23T09:41:46.017Z,9.10
2019-03-23T09:42:46.212Z,7.10
2019-03-23T09:43:46.414Z,7.30
2019-03-23T09:44:46.617Z,7.80
2019-03-23T09:45:46.830Z,6.30
2019-03-23T09:46:47.025Z,6.40
2019-03-23T09:47:47.229Z,6.10
2019-03-23T09:48:47.415Z,10.60
2019-03-23T09:49:47.615Z,7.50
2019-03-23T09:50:47.816Z,6.20
2019-03-23T09:51:48.022Z,7.40
2019-03-23T09:52:48.224Z,9.90
2019-03-23T09:53:48.420Z,6.40
2019-03-23T09:54:48.647Z,8.80
2019-03-23T09:55:48.822Z,7.10
2019-03-23T09:56:49.031Z,7.40
2019-03-23T09:57:49.228Z,8.90
2019-03-23T09:58:49.434Z,6.50
2019-03-23T09:59:49.636Z,8.40
2019-03-23T10:00:49.836Z,7.50
2019-03-23T10:01:50.035Z,10.50
2019-03-23T10:02:50.254Z,7.90
2019-03-23T10:03:50.436Z,8.20
2019-03-23T10:04:50.646Z,6.90
2019-03-23T10:05:50.852Z,6.70
2019-03-23T10:06:51.040Z,9.60
2019-03-23T10:07:51.239Z,7.10
2019-03-23T10:08:51.444Z,9.90
2019-03-23T10:09:51.642Z,9.20
2019-03-23T10:10:51.838Z,8.70
2019-03-23T10:11:52.036Z,7.50
2019-03-23T10:12:52.237Z,9.00
2019-03-23T10:13:52.440Z,10.70
2019-03-23T10:14:52.646Z,11.80
2019-03-23T10:15:52.839Z,11.70
2019-03-23T10:16:53.041Z,9.70
2019-03-23T10:17:53.241Z,11.20
2019-03-23T10:18:53.445Z,11.90
2019-03-23T10:19:53.648Z,11.40
2019-03-23T10:20:53.852Z,8.40
2019-03-23T10:21:54.050Z,9.60
2019-03-23T10:22:54.255Z,8.80
2019-03-23T10:23:54.648Z,10.80
2019-03-23T10:24:54.650Z,9.90
2019-03-23T10:25:54.849Z,10.80
2019-03-23T10:26:55.049Z,11.30
2019-03-23T10:27:55.257Z,12.20
2019-03-23T10:28:55.451Z,11.70
2019-03-23T10:29:55.659Z,10.10
2019-03-23T10:30:55.867Z,14.80
2019-03-23T10:31:56.066Z,11.40
2019-03-23T10:32:56.265Z,9.50
2019-03-23T10:33:56.471Z,11.00
2019-03-23T10:34:56.675Z,9.00
2019-03-23T10:35:56.874Z,11.60
2019-03-23T10:36:57.597Z,9.30
2019-03-23T10:37:58.086Z,10.80
2019-03-23T10:38:57.501Z,8.90
2019-03-23T10:39:57.698Z,8.60
2019-03-23T10:40:57.893Z,9.50
2019-03-23T10:41:58.099Z,13.90
2019-03-23T10:43:00.086Z,9.90
2019-03-23T10:43:58.487Z,11.90
2019-03-23T10:44:58.689Z,9.70
2019-03-23T10:45:58.900Z,10.70
2019-03-23T10:47:00.101Z,9.70
2019-03-23T10:47:59.326Z,10.90
2019-03-23T10:48:59.531Z,10.10
2019-03-23T10:49:59.741Z,12.90
2019-03-23T10:50:59.947Z,10.10
2019-03-23T10:52:00.141Z,9.10
2019-03-23T10:53:00.347Z,9.90
2019-03-23T10:54:00.548Z,9.20
2019-03-23T10:55:00.758Z,9.20
2019-03-23T10:56:00.956Z,11.00
2019-03-23T10:57:01.160Z,9.60
2019-03-23T10:58:01.363Z,11.30
2019-03-23T10:59:01.562Z,11.50
2019-03-23T11:00:01.765Z,10.00
2019-03-23T11:01:01.969Z,10.70
2019-03-23T11:02:02.167Z,11.50
2019-03-23T11:03:02.364Z,13.70
2019-03-23T11:04:02.564Z,11.10
2019-03-23T11:05:02.767Z,10.50
2019-03-23T11:06:02.968Z,10.80
2019-03-23T11:07:03.164Z,11.80
2019-03-23T11:08:03.369Z,12.00
2019-03-23T11:09:03.570Z,11.20
2019-03-23T11:10:03.775Z,11.90
2019-03-23T11:11:03.971Z,13.80
2019-03-23T11:12:04.176Z,12.60
2019-03-23T11:13:04.366Z,10.20
2019-03-23T11:14:04.595Z,12.20
2019-03-23T11:15:04.772Z,9.90
2019-03-23T11:16:04.973Z,13.30
2019-03-23T11:17:05.178Z,13.20
2019-03-23T11:18:05.372Z,12.70
2019-03-23T11:19:13.343Z,12.40
2019-03-23T11:20:05.772Z,12.40
2019-03-23T11:21:05.976Z,11.30
2019-03-23T11:22:06.176Z,11.60
2019-03-23T11:23:06.373Z,11.90
2019-03-23T11:24:06.578Z,13.50
2019-03-23T11:25:06.778Z,11.90
2019-03-23T11:26:06.975Z,11.10
2019-03-23T11:27:07.176Z,12.70
2019-03-23T11:28:07.382Z,12.80
2019-03-23T11:29:08.483Z,12.30
2019-03-23T11:30:07.785Z,12.30
2019-03-23T11:31:07.982Z,12.00
2019-03-23T11:32:08.187Z,12.00
2019-03-23T11:33:08.398Z,12.20
2019-03-23T11:34:17.564Z,15.60
2019-03-23T11:35:08.812Z,13.40
2019-03-23T11:36:09.000Z,12.50
2019-03-23T11:37:09.254Z,12.10
2019-03-23T11:38:09.403Z,11.70
2019-03-23T11:39:09.609Z,12.60
2019-03-23T11:40:09.816Z,12.80
2019-03-23T11:41:10.020Z,11.40
2019-03-23T11:42:10.249Z,12.40
2019-03-23T11:43:10.425Z,14.10
2019-03-23T11:44:10.626Z,12.50
2019-03-23T11:45:10.831Z,11.00
2019-03-23T11:46:11.022Z,14.40
2019-03-23T11:47:11.224Z,13.10
2019-03-23T11:48:11.435Z,12.50
2019-03-23T11:49:11.630Z,14.40
2019-03-23T11:50:11.828Z,12.90
2019-03-23T11:51:12.022Z,15.80
2019-03-23T11:52:12.225Z,14.40
2019-03-23T11:53:12.422Z,13.60
2019-03-23T11:54:12.624Z,15.90
2019-03-23T11:55:12.821Z,15.20
2019-03-23T11:56:13.021Z,14.40
2019-03-23T11:57:13.223Z,14.60
2019-03-23T11:58:13.424Z,14.60
2019-03-23T11:59:13.623Z,13.40
2019-03-23T12:00:13.821Z,13.20
2019-03-23T12:01:14.022Z,13.30
2019-03-23T12:02:14.228Z,16.50
2019-03-23T12:03:14.428Z,21.60
2019-03-23T12:04:14.615Z,18.90
2019-03-23T12:05:14.816Z,18.60
2019-03-23T12:06:15.021Z,20.00
2019-03-23T12:07:15.255Z,23.10
2019-03-23T12:08:15.453Z,18.30
2019-03-23T12:09:15.648Z,19.40
2019-03-23T12:10:15.861Z,21.00
2019-03-23T12:11:16.061Z,19.30
2019-03-23T12:12:16.252Z,19.10
2019-03-23T12:13:16.458Z,21.50
2019-03-23T12:14:16.651Z,23.70
2019-03-23T12:15:16.853Z,20.60
2019-03-23T12:16:17.051Z,21.10
2019-03-23T12:17:17.262Z,21.00
2019-03-23T12:18:17.447Z,22.80
2019-03-23T12:19:17.667Z,20.40
2019-03-23T12:20:17.853Z,22.90
2019-03-23T12:21:18.051Z,20.40
2019-03-23T12:22:18.251Z,21.60
2019-03-23T12:23:18.448Z,21.90
2019-03-23T12:24:18.646Z,24.50
2019-03-23T12:25:18.853Z,23.60
2019-03-23T12:26:19.135Z,33.10
2019-03-23T12:27:19.206Z,26.70
2019-03-23T12:28:19.410Z,24.50
2019-03-23T12:29:19.606Z,30.30
2019-03-23T12:30:19.801Z,26.30
2019-03-23T12:31:20.003Z,25.90
2019-03-23T12:32:20.195Z,26.40
2019-03-23T12:33:21.495Z,24.80
2019-03-23T12:34:20.587Z,24.70
2019-03-23T12:35:20.780Z,27.50
2019-03-23T12:36:20.982Z,27.90
2019-03-23T12:37:21.176Z,28.30
2019-03-23T12:38:21.373Z,29.30
2019-03-23T12:39:21.563Z,27.00
2019-03-23T12:40:21.756Z,28.60
2019-03-23T12:41:25.174Z,28.60
2019-03-23T12:42:30.151Z,29.80
2019-03-23T12:43:23.149Z,30.50
2019-03-23T12:45:22.791Z,32.50
2019-03-23T12:46:48.557Z,26.60
2019-03-23T12:47:23.133Z,28.80
2019-03-23T12:48:23.332Z,28.90
2019-03-23T12:49:23.521Z,27.80
2019-03-23T12:50:23.715Z,30.00
2019-03-23T12:51:23.912Z,29.70
2019-03-23T12:52:24.107Z,29.50
2019-03-23T12:53:24.289Z,30.00
2019-03-23T12:54:24.492Z,29.30
2019-03-23T12:55:24.677Z,30.20
2019-03-23T12:56:24.872Z,28.20
2019-03-23T12:57:25.069Z,29.50
2019-03-23T12:58:25.267Z,33.10
2019-03-23T12:59:25.473Z,30.80
2019-03-23T13:00:25.666Z,30.90
2019-03-23T13:01:25.861Z,31.60
2019-03-23T13:02:26.053Z,31.80
2019-03-23T13:03:26.246Z,30.70
2019-03-23T13:04:26.449Z,30.90
2019-03-23T13:05:26.648Z,32.00
2019-03-23T13:06:26.842Z,32.20
2019-03-23T13:07:27.029Z,36.50
2019-03-23T13:08:27.234Z,37.60
2019-03-23T13:09:27.428Z,37.30
2019-03-23T13:10:27.619Z,37.90
2019-03-23T13:11:34.776Z,37.30
2019-03-23T13:12:28.009Z,37.10